createdAt,value
2023-05-11T00:00:42.237Z,6.30
2023-05-11T00:03:09.549Z,6.15
2023-05-11T00:05:36.634Z,6.10
2023-05-11T00:08:04.180Z,6.03
2023-05-11T00:10:31.713Z,5.90
2023-05-11T00:12:58.883Z,6.07
2023-05-11T00:15:26.031Z,6.25
2023-05-11T00:17:53.947Z,5.88
2023-05-11T00:20:22.001Z,6.35
2023-05-11T00:22:49.153Z,6.20
2023-05-11T00:25:16.189Z,5.05
2023-05-11T00:27:46.025Z,6.45
2023-05-11T00:30:15.389Z,6.03
2023-05-11T00:32:44.367Z,6.75
2023-05-11T00:35:12.889Z,6.13
2023-05-11T00:37:41.090Z,6.47
2023-05-11T00:40:08.604Z,6.70
2023-05-11T00:42:35.664Z,6.95
2023-05-11T00:45:03.305Z,6.93
2023-05-11T00:47:31.952Z,7.05
2023-05-11T00:49:59.412Z,8.05
2023-05-11T00:52:26.881Z,7.35
2023-05-11T00:54:53.962Z,7.25
2023-05-11T00:57:23.549Z,7.50
2023-05-11T00:59:50.718Z,7.15
2023-05-11T01:02:18.985Z,7.50
2023-05-11T01:04:46.647Z,7.03
2023-05-11T01:07:49.196Z,7.07
2023-05-11T01:10:38.909Z,7.50
2023-05-11T01:13:36.213Z,6.85
2023-05-11T01:16:26.996Z,6.72
2023-05-11T01:19:04.282Z,6.80
2023-05-11T01:21:34.922Z,5.88
2023-05-11T01:24:42.916Z,6.95
2023-05-11T01:27:20.280Z,6.25
2023-05-11T01:30:51.266Z,6.57
2023-05-11T01:33:27.797Z,6.57
2023-05-11T01:36:03.182Z,6.75
2023-05-11T01:38:37.737Z,6.75
2023-05-11T01:41:18.269Z,6.53
2023-05-11T01:43:54.693Z,6.88
2023-05-11T01:46:30.823Z,6.60
2023-05-11T01:49:00.750Z,7.15
2023-05-11T01:51:34.767Z,6.80
2023-05-11T01:54:06.108Z,7.15
2023-05-11T01:56:36.211Z,6.80
2023-05-11T01:59:05.470Z,7.05
2023-05-11T02:01:36.592Z,6.68
2023-05-11T02:04:06.916Z,6.20
2023-05-11T02:06:36.810Z,6.70
2023-05-11T02:09:09.654Z,6.30
2023-05-11T02:11:40.400Z,6.15
2023-05-11T02:14:11.716Z,6.20
2023-05-11T02:16:39.925Z,6.57
2023-05-11T02:19:08.531Z,5.68
2023-05-11T02:21:38.810Z,6.72
2023-05-11T02:24:08.301Z,6.75
2023-05-11T02:26:36.299Z,6.65
2023-05-11T02:29:03.609Z,6.43
2023-05-11T02:31:46.286Z,7.15
2023-05-11T02:34:32.609Z,6.82
2023-05-11T02:37:06.236Z,7.18
2023-05-11T02:39:39.804Z,7.95
2023-05-11T02:42:22.811Z,7.03
2023-05-11T02:45:02.406Z,7.38
2023-05-11T02:47:39.697Z,6.85
2023-05-11T02:50:24.335Z,7.57
2023-05-11T02:52:59.930Z,7.50
2023-05-11T02:55:29.182Z,7.70
2023-05-11T02:57:56.590Z,7.35
2023-05-11T03:00:24.790Z,7.20
2023-05-11T03:02:52.513Z,6.68
2023-05-11T03:05:24.598Z,7.45
2023-05-11T03:07:56.260Z,7.55
2023-05-11T03:10:26.824Z,7.37
2023-05-11T03:12:54.948Z,8.48
2023-05-11T03:15:23.498Z,7.63
2023-05-11T03:17:53.548Z,7.97
2023-05-11T03:20:23.743Z,8.10
2023-05-11T03:22:52.720Z,7.65
2023-05-11T03:25:22.243Z,8.13
2023-05-11T03:27:52.463Z,7.32
2023-05-11T03:30:20.996Z,7.78
2023-05-11T03:32:51.322Z,7.88
2023-05-11T03:35:18.818Z,7.57
2023-05-11T03:37:49.213Z,7.40
2023-05-11T03:40:19.731Z,7.32
2023-05-11T03:42:57.739Z,6.40
2023-05-11T03:45:28.836Z,6.38
2023-05-11T03:47:57.713Z,6.03
2023-05-11T03:50:26.040Z,5.88
2023-05-11T03:52:55.283Z,6.28
2023-05-11T03:55:23.054Z,5.93
2023-05-11T03:57:54.336Z,6.20
2023-05-11T04:00:22.608Z,5.75
2023-05-11T04:02:49.810Z,5.50
2023-05-11T04:05:18.587Z,5.40
2023-05-11T04:07:46.608Z,5.82
2023-05-11T04:10:13.628Z,5.63
2023-05-11T04:13:07.226Z,4.75
2023-05-11T04:16:15.293Z,5.35
2023-05-11T04:18:49.436Z,5.18
2023-05-11T04:21:22.148Z,4.82
2023-05-11T04:23:58.545Z,5.57
2023-05-11T04:26:28.477Z,5.55
2023-05-11T04:28:55.508Z,4.82
2023-05-11T04:31:22.632Z,5.70
2023-05-11T04:33:50.191Z,5.28
2023-05-11T04:36:19.783Z,5.57
2023-05-11T04:38:47.100Z,5.43
2023-05-11T04:41:15.758Z,5.57
2023-05-11T04:43:44.068Z,5.22
2023-05-11T04:46:11.345Z,5.00
2023-05-11T04:48:38.916Z,6.05
2023-05-11T04:51:06.983Z,5.82
2023-05-11T04:53:39.151Z,4.50
2023-05-11T04:56:07.396Z,4.50
2023-05-11T04:59:04.029Z,4.72
2023-05-11T05:01:44.589Z,4.03
2023-05-11T05:05:17.819Z,5.40
2023-05-11T05:07:58.166Z,4.68
2023-05-11T05:10:36.618Z,4.55
2023-05-11T05:13:34.182Z,4.25
2023-05-11T05:16:02.097Z,4.65
2023-05-11T05:18:29.135Z,4.60
2023-05-11T05:20:56.440Z,3.90
2023-05-11T05:23:45.931Z,4.50
2023-05-11T05:29:50.654Z,4.28
2023-05-11T05:33:29.921Z,4.68
2023-05-11T05:36:51.572Z,4.63
2023-05-11T05:40:13.026Z,4.00
2023-05-11T05:43:12.064Z,4.40
2023-05-11T05:45:39.584Z,4.55
2023-05-11T05:48:07.091Z,4.32
2023-05-11T05:50:34.868Z,4.35
2023-05-11T05:53:18.330Z,4.18
2023-05-11T05:55:45.914Z,4.03
2023-05-11T05:58:12.985Z,3.72
2023-05-11T06:00:40.562Z,3.97
2023-05-11T06:03:13.236Z,4.07
2023-05-11T06:05:42.077Z,3.80
2023-05-11T06:08:11.112Z,3.97
2023-05-11T06:11:51.089Z,4.15
2023-05-11T06:14:51.346Z,4.65
2023-05-11T06:17:36.357Z,4.18
2023-05-11T06:20:32.169Z,3.95
2023-05-11T06:23:16.432Z,3.85
2023-05-11T06:29:13.744Z,3.92
2023-05-11T06:32:10.724Z,4.05
2023-05-11T06:35:35.150Z,3.58
2023-05-11T06:41:33.442Z,3.90
2023-05-11T06:44:37.913Z,3.95
2023-05-11T06:47:17.274Z,4.37
2023-05-11T06:49:45.109Z,3.60
2023-05-11T06:52:42.274Z,3.30
2023-05-11T06:55:38.320Z,2.92
2023-05-11T06:58:05.801Z,3.17
2023-05-11T07:03:12.942Z,3.22
2023-05-11T07:06:38.861Z,2.90
2023-05-11T07:09:06.630Z,2.97
2023-05-11T07:11:33.910Z,3.47
2023-05-11T07:14:02.125Z,2.95
2023-05-11T07:16:29.277Z,2.83
2023-05-11T07:19:25.159Z,4.07
2023-05-11T07:22:02.159Z,3.00
2023-05-11T07:24:29.537Z,3.95
2023-05-11T07:26:57.516Z,3.17
2023-05-11T07:29:25.057Z,2.97
2023-05-11T07:31:52.296Z,2.80
2023-05-11T07:34:19.283Z,2.97
2023-05-11T07:36:52.897Z,3.20
2023-05-11T07:39:45.300Z,3.00
2023-05-11T07:43:00.708Z,3.05
2023-05-11T07:46:05.441Z,3.30
2023-05-11T07:48:32.430Z,3.20
2023-05-11T07:51:00.052Z,3.10
2023-05-11T07:53:27.556Z,3.35
2023-05-11T07:55:54.541Z,2.80
2023-05-11T07:58:21.660Z,3.15
2023-05-11T08:00:48.606Z,2.70
2023-05-11T08:03:16.541Z,3.00
2023-05-11T08:05:43.951Z,2.42
2023-05-11T08:08:12.020Z,3.15
2023-05-11T08:10:39.142Z,3.28
2023-05-11T08:13:06.097Z,3.10
2023-05-11T08:15:41.517Z,3.22
2023-05-11T08:18:18.238Z,3.60
2023-05-11T08:20:45.348Z,2.78
2023-05-11T08:23:17.191Z,2.70
2023-05-11T08:25:55.667Z,3.15
2023-05-11T08:28:23.130Z,3.00
2023-05-11T08:30:58.261Z,3.00
2023-05-11T08:33:37.383Z,3.28
2023-05-11T08:40:03.044Z,2.70
2023-05-11T08:47:17.108Z,2.88
2023-05-11T08:56:32.969Z,2.40
2023-05-11T08:59:32.116Z,2.83
2023-05-11T09:02:04.571Z,2.70
2023-05-11T09:04:33.576Z,3.60
2023-05-11T09:07:00.909Z,2.85
2023-05-11T09:09:28.632Z,2.80
2023-05-11T09:11:58.759Z,2.50
2023-05-11T09:14:33.128Z,2.92
2023-05-11T09:17:05.657Z,2.88
2023-05-11T09:20:35.689Z,2.53
2023-05-11T09:23:49.712Z,2.47
2023-05-11T09:26:20.632Z,2.47
2023-05-11T09:29:02.418Z,2.65
2023-05-11T09:31:39.612Z,3.03
2023-05-11T09:34:13.956Z,2.63
2023-05-11T09:36:44.049Z,2.65
2023-05-11T09:43:25.036Z,2.60
2023-05-11T09:46:00.234Z,2.72
2023-05-11T09:48:36.479Z,2.47
2023-05-11T09:51:08.392Z,2.92
2023-05-11T10:00:48.712Z,2.42
2023-05-11T10:08:49.289Z,2.75
2023-05-11T10:17:54.166Z,2.22
2023-05-11T10:20:48.715Z,2.00
2023-05-11T10:23:27.004Z,2.38
2023-05-11T10:26:12.972Z,2.13
2023-05-11T10:28:40.495Z,2.20
2023-05-11T10:31:09.166Z,2.13
2023-05-11T10:33:37.201Z,2.20
2023-05-11T10:36:05.117Z,2.58
2023-05-11T10:38:32.256Z,2.20
2023-05-11T10:41:15.687Z,2.15
2023-05-11T10:44:32.260Z,2.38
2023-05-11T10:47:26.038Z,1.80
2023-05-11T10:50:29.210Z,1.92
2023-05-11T10:53:12.963Z,2.47
2023-05-11T10:56:27.393Z,2.30
2023-05-11T10:59:11.963Z,2.42
2023-05-11T11:01:43.747Z,2.38
2023-05-11T11:04:17.445Z,1.83
2023-05-11T11:06:44.809Z,2.10
2023-05-11T11:09:15.645Z,1.70
2023-05-11T11:11:48.206Z,1.73
2023-05-11T11:18:43.781Z,1.92
2023-05-11T11:21:15.636Z,1.90
2023-05-11T11:23:50.401Z,1.98
2023-05-11T11:26:52.000Z,11.00
2023-05-11T11:29:19.258Z,1.73
2023-05-11T11:31:46.888Z,1.80
2023-05-11T11:34:29.454Z,2.10
2023-05-11T11:37:06.546Z,2.17
2023-05-11T11:43:43.467Z,2.20
2023-05-11T12:12:20.632Z,1.92
2023-05-11T12:20:24.373Z,2.03
2023-05-11T12:22:38.758Z,2.10
2023-05-11T12:25:35.288Z,2.30
2023-05-11T12:37:49.312Z,1.95
2023-05-11T12:41:57.402Z,2.00
2023-05-11T12:52:04.754Z,2.25
2023-05-11T12:59:46.853Z,2.20
2023-05-11T13:12:38.209Z,2.40
2023-05-11T13:15:32.066Z,1.85
2023-05-11T13:18:04.647Z,2.35
2023-05-11T13:20:34.248Z,2.30
2023-05-11T13:23:16.232Z,2.72
2023-05-11T13:25:49.184Z,1.77
2023-05-11T13:28:21.140Z,1.83
2023-05-11T13:30:49.007Z,2.13
2023-05-11T13:33:16.136Z,1.80
2023-05-11T13:35:48.217Z,2.00
2023-05-11T13:38:28.299Z,2.03
2023-05-11T13:40:55.678Z,2.25
2023-05-11T13:43:22.902Z,1.73
2023-05-11T13:45:50.338Z,2.25
2023-05-11T13:48:17.486Z,2.17
2023-05-11T13:50:45.987Z,1.58
2023-05-11T13:53:13.869Z,1.98
2023-05-11T13:55:42.777Z,1.80
2023-05-11T13:58:10.964Z,1.70
2023-05-11T14:00:40.098Z,1.95
2023-05-11T14:03:08.620Z,1.92
2023-05-11T14:05:37.378Z,1.65
2023-05-11T14:08:06.478Z,1.88
2023-05-11T14:10:33.731Z,1.58
2023-05-11T14:13:01.168Z,1.75
2023-05-11T14:15:28.346Z,1.65
2023-05-11T14:17:56.157Z,2.05
2023-05-11T14:20:23.695Z,1.73
2023-05-11T14:22:51.077Z,1.55
2023-05-11T14:25:18.734Z,1.90
2023-05-11T14:27:45.998Z,1.98
2023-05-11T14:30:13.601Z,1.63
2023-05-11T14:32:42.727Z,1.77
2023-05-11T14:35:12.944Z,1.73
2023-05-11T14:37:43.354Z,1.60
2023-05-11T14:40:11.516Z,1.83
2023-05-11T14:42:38.550Z,1.55
2023-05-11T14:49:14.519Z,1.50
2023-05-11T14:51:41.701Z,1.50
2023-05-11T14:58:00.754Z,1.73
2023-05-11T15:00:28.995Z,1.67
2023-05-11T15:02:56.224Z,1.52
2023-05-11T15:05:23.424Z,1.60
2023-05-11T15:07:51.938Z,1.67
2023-05-11T15:10:19.598Z,1.65
2023-05-11T15:13:12.117Z,1.70
2023-05-11T15:15:39.432Z,1.60
2023-05-11T15:18:07.232Z,1.92
2023-05-11T15:20:36.069Z,1.73
2023-05-11T15:23:03.736Z,1.80
2023-05-11T15:25:30.959Z,1.52
2023-05-11T15:27:58.283Z,1.80
2023-05-11T15:30:27.975Z,1.45
2023-05-11T15:32:55.598Z,1.85
2023-05-11T15:35:22.769Z,2.35
2023-05-11T15:37:50.350Z,1.48
2023-05-11T15:40:17.816Z,2.20
2023-05-11T15:42:44.870Z,1.75
2023-05-11T15:45:12.449Z,2.20
2023-05-11T15:47:40.736Z,1.75
2023-05-11T15:50:09.330Z,1.48
2023-05-11T15:52:57.152Z,1.90
2023-05-11T15:55:25.486Z,1.90
2023-05-11T15:57:53.238Z,3.45
2023-05-11T16:00:21.065Z,1.70
2023-05-11T16:02:49.211Z,1.30
2023-05-11T16:05:19.173Z,1.83
2023-05-11T16:07:46.710Z,1.85
2023-05-11T16:10:14.247Z,1.52
2023-05-11T16:12:41.893Z,1.55
2023-05-11T16:15:09.457Z,1.67
2023-05-11T16:17:38.766Z,1.75
2023-05-11T16:20:09.190Z,1.70
2023-05-11T16:22:37.361Z,2.13
2023-05-11T16:26:01.124Z,2.05
2023-05-11T16:28:28.345Z,1.40
2023-05-11T16:30:57.874Z,1.85
2023-05-11T16:33:27.018Z,1.67
2023-05-11T16:35:54.240Z,1.92
2023-05-11T16:38:22.608Z,1.83
2023-05-11T16:40:50.431Z,1.92
2023-05-11T16:53:52.211Z,1.90
2023-05-11T17:04:10.754Z,2.10
2023-05-11T17:15:22.446Z,4.63
2023-05-11T17:17:53.585Z,4.90
2023-05-11T17:20:23.714Z,3.47
2023-05-11T17:22:50.867Z,6.75
2023-05-11T17:25:36.405Z,2.35
2023-05-11T17:28:40.053Z,2.13
2023-05-11T17:31:31.221Z,2.67
2023-05-11T17:33:59.647Z,2.10
2023-05-11T17:36:30.914Z,2.33
2023-05-11T17:38:59.807Z,2.65
2023-05-11T17:41:28.515Z,3.65
2023-05-11T17:44:04.657Z,2.42
2023-05-11T17:46:32.695Z,2.13
2023-05-11T17:49:02.863Z,1.98
2023-05-11T17:52:52.600Z,2.08
2023-05-11T17:55:39.648Z,2.05
2023-05-11T17:58:10.000Z,1.75
2023-05-11T18:00:38.013Z,1.90
2023-05-11T18:03:06.003Z,2.50
2023-05-11T18:05:47.579Z,2.55
2023-05-11T18:22:15.983Z,2.08
2023-05-11T18:24:43.470Z,2.20
2023-05-11T18:27:11.425Z,2.40
2023-05-11T18:29:39.408Z,2.40
2023-05-11T18:32:07.228Z,2.20
2023-05-11T18:34:34.761Z,2.10
2023-05-11T18:37:03.151Z,2.40
2023-05-11T18:39:31.093Z,2.30
2023-05-11T18:42:02.506Z,2.35
2023-05-11T18:44:29.787Z,2.50
2023-05-11T18:47:26.593Z,2.25
2023-05-11T19:10:28.846Z,2.88
2023-05-11T19:14:22.742Z,2.78
2023-05-11T19:17:48.195Z,2.90
2023-05-11T19:20:48.147Z,4.57
2023-05-11T19:23:15.299Z,2.95
2023-05-11T19:25:42.588Z,3.00
2023-05-11T19:28:10.262Z,2.67
2023-05-11T19:30:38.112Z,3.00
2023-05-11T19:33:05.572Z,2.88
2023-05-11T19:35:33.364Z,2.80
2023-05-11T19:38:00.718Z,2.60
2023-05-11T19:43:18.860Z,2.83
2023-05-11T19:45:46.604Z,2.80
2023-05-11T19:48:14.172Z,2.83
2023-05-11T20:03:38.295Z,3.05
2023-05-11T20:30:53.247Z,3.13
2023-05-11T20:37:51.063Z,3.60
2023-05-11T20:53:06.104Z,3.30
2023-05-11T20:55:33.562Z,3.90
2023-05-11T20:58:00.902Z,3.97
2023-05-11T21:00:28.368Z,3.60
2023-05-11T21:03:02.124Z,4.43
2023-05-11T21:05:29.396Z,4.55
2023-05-11T21:08:50.838Z,3.53
2023-05-11T21:12:21.653Z,3.83
2023-05-11T21:24:53.800Z,4.18
2023-05-11T21:27:20.978Z,3.80
2023-05-11T21:30:06.717Z,4.85
2023-05-11T21:41:39.993Z,3.80
2023-05-11T22:11:41.104Z,4.43
2023-05-11T22:14:08.441Z,4.68
2023-05-11T22:16:35.650Z,4.50
2023-05-11T22:19:21.046Z,4.18
2023-05-11T22:21:49.926Z,4.60
2023-05-11T22:24:21.645Z,4.50
2023-05-11T22:26:48.688Z,4.18
2023-05-11T22:29:15.743Z,3.78
2023-05-11T22:31:45.868Z,4.07
2023-05-11T22:34:13.277Z,4.22
2023-05-11T22:36:40.399Z,4.93
2023-05-11T22:39:07.441Z,4.35
2023-05-11T22:41:37.485Z,4.22
2023-05-11T22:44:04.868Z,3.85
2023-05-11T22:46:32.662Z,4.68
2023-05-11T22:48:59.897Z,4.43
2023-05-11T22:51:27.164Z,3.72
2023-05-11T22:53:55.191Z,4.30
2023-05-11T22:56:24.401Z,3.92
2023-05-11T22:58:52.674Z,4.10
2023-05-11T23:01:20.567Z,3.78
2023-05-11T23:03:47.642Z,3.67
2023-05-11T23:06:14.664Z,4.95
2023-05-11T23:08:41.945Z,3.55
2023-05-11T23:11:09.185Z,3.92
2023-05-11T23:13:36.371Z,3.83
2023-05-11T23:16:04.405Z,3.70
2023-05-11T23:18:33.477Z,3.83
2023-05-11T23:21:00.794Z,3.72
2023-05-11T23:23:28.304Z,3.70
2023-05-11T23:25:55.407Z,3.38
2023-05-11T23:28:22.683Z,3.42
2023-05-11T23:30:49.813Z,3.45
2023-05-11T23:33:17.365Z,3.55
2023-05-11T23:35:44.534Z,3.33
2023-05-11T23:38:11.798Z,3.90
2023-05-11T23:40:38.896Z,4.10
2023-05-11T23:43:06.140Z,3.97
2023-05-11T23:45:37.696Z,4.05
2023-05-11T23:48:05.624Z,3.55
2023-05-11T23:50:32.899Z,4.07
2023-05-11T23:53:00.181Z,3.28
2023-05-11T23:55:29.392Z,3.60
2023-05-11T23:57:58.735Z,3.80
